sensor_id;sensor_type;location;lat;lon;timestamp;P1;durP1;ratioP1;P2;durP2;ratioP2
10645;SDS011;5371;49.782;9.932;2022-08-06T00:00:15;1.60;;;1.50;;
10645;SDS011;5371;49.782;9.932;2022-08-06T00:02:42;5.10;;;1.80;;
10645;SDS011;5371;49.782;9.932;2022-08-06T00:05:10;3.83;;;1.80;;
10645;SDS011;5371;49.782;9.932;2022-08-06T00:07:39;1.73;;;1.60;;
10645;SDS011;5371;49.782;9.932;2022-08-06T00:10:06;2.17;;;1.70;;
10645;SDS011;5371;49.782;9.932;2022-08-06T00:12:37;2.33;;;1.70;;
10645;SDS011;5371;49.782;9.932;2022-08-06T00:15:07;2.28;;;1.67;;
10645;SDS011;5371;49.782;9.932;2022-08-06T00:17:34;2.35;;;1.80;;
10645;SDS011;5371;49.782;9.932;2022-08-06T00:20:03;3.50;;;1.80;;
10645;SDS011;5371;49.782;9.932;2022-08-06T00:22:31;3.63;;;1.60;;
10645;SDS011;5371;49.782;9.932;2022-08-06T00:25:00;2.80;;;1.70;;
10645;SDS011;5371;49.782;9.932;2022-08-06T00:27:27;3.42;;;1.90;;
10645;SDS011;5371;49.782;9.932;2022-08-06T00:29:57;2.65;;;1.85;;
10645;SDS011;5371;49.782;9.932;2022-08-06T00:32:25;3.70;;;1.90;;
10645;SDS011;5371;49.782;9.932;2022-08-06T00:34:52;2.15;;;1.77;;
10645;SDS011;5371;49.782;9.932;2022-08-06T00:37:20;2.22;;;1.60;;
10645;SDS011;5371;49.782;9.932;2022-08-06T00:39:49;2.25;;;1.75;;
10645;SDS011;5371;49.782;9.932;2022-08-06T00:42:26;3.28;;;1.80;;
10645;SDS011;5371;49.782;9.932;2022-08-06T00:44:56;3.90;;;1.65;;
10645;SDS011;5371;49.782;9.932;2022-08-06T00:47:26;2.47;;;1.70;;
10645;SDS011;5371;49.782;9.932;2022-08-06T00:49:57;2.40;;;1.70;;
10645;SDS011;5371;49.782;9.932;2022-08-06T00:52:28;2.85;;;1.92;;
10645;SDS011;5371;49.782;9.932;2022-08-06T00:54:56;2.10;;;1.88;;
10645;SDS011;5371;49.782;9.932;2022-08-06T00:57:28;3.80;;;1.85;;
10645;SDS011;5371;49.782;9.932;2022-08-06T01:00:04;2.58;;;1.98;;
10645;SDS011;5371;49.782;9.932;2022-08-06T01:02:57;4.15;;;1.90;;
10645;SDS011;5371;49.782;9.932;2022-08-06T01:05:29;2.38;;;1.80;;
10645;SDS011;5371;49.782;9.932;2022-08-06T01:07:58;1.95;;;1.63;;
10645;SDS011;5371;49.782;9.932;2022-08-06T01:10:27;2.33;;;1.70;;
10645;SDS011;5371;49.782;9.932;2022-08-06T01:13:00;3.22;;;1.77;;
10645;SDS011;5371;49.782;9.932;2022-08-06T01:15:28;3.22;;;1.80;;
10645;SDS011;5371;49.782;9.932;2022-08-06T01:17:57;2.00;;;1.80;;
10645;SDS011;5371;49.782;9.932;2022-08-06T01:20:34;4.05;;;1.98;;
10645;SDS011;5371;49.782;9.932;2022-08-06T01:23:27;2.50;;;2.10;;
10645;SDS011;5371;49.782;9.932;2022-08-06T01:26:26;4.65;;;2.00;;
10645;SDS011;5371;49.782;9.932;2022-08-06T01:29:06;3.10;;;2.00;;
10645;SDS011;5371;49.782;9.932;2022-08-06T01:31:41;3.75;;;2.00;;
10645;SDS011;5371;49.782;9.932;2022-08-06T01:34:15;2.10;;;1.90;;
10645;SDS011;5371;49.782;9.932;2022-08-06T01:36:49;2.42;;;1.70;;
10645;SDS011;5371;49.782;9.932;2022-08-06T01:39:22;3.58;;;2.00;;
10645;SDS011;5371;49.782;9.932;2022-08-06T01:41:55;3.03;;;2.10;;
10645;SDS011;5371;49.782;9.932;2022-08-06T01:44:32;2.45;;;1.70;;
10645;SDS011;5371;49.782;9.932;2022-08-06T01:47:11;3.90;;;1.90;;
10645;SDS011;5371;49.782;9.932;2022-08-06T01:49:48;2.67;;;2.00;;
10645;SDS011;5371;49.782;9.932;2022-08-06T01:52:21;3.35;;;1.80;;
10645;SDS011;5371;49.782;9.932;2022-08-06T01:54:53;4.45;;;1.80;;
10645;SDS011;5371;49.782;9.932;2022-08-06T01:57:24;3.10;;;2.08;;
10645;SDS011;5371;49.782;9.932;2022-08-06T02:00:00;3.67;;;1.90;;
10645;SDS011;5371;49.782;9.932;2022-08-06T02:02:38;2.10;;;1.83;;
10645;SDS011;5371;49.782;9.932;2022-08-06T02:05:11;3.53;;;1.95;;
10645;SDS011;5371;49.782;9.932;2022-08-06T02:07:46;2.55;;;1.90;;
10645;SDS011;5371;49.782;9.932;2022-08-06T02:10:17;2.58;;;1.80;;
10645;SDS011;5371;49.782;9.932;2022-08-06T02:12:50;4.95;;;2.10;;
10645;SDS011;5371;49.782;9.932;2022-08-06T02:15:24;3.03;;;2.13;;
10645;SDS011;5371;49.782;9.932;2022-08-06T02:17:57;4.82;;;1.90;;
10645;SDS011;5371;49.782;9.932;2022-08-06T02:20:30;2.90;;;2.03;;
10645;SDS011;5371;49.782;9.932;2022-08-06T02:23:02;5.03;;;2.00;;
10645;SDS011;5371;49.782;9.932;2022-08-06T02:25:32;3.58;;;2.00;;
10645;SDS011;5371;49.782;9.932;2022-08-06T02:28:08;3.17;;;2.03;;
10645;SDS011;5371;49.782;9.932;2022-08-06T02:30:46;3.65;;;2.10;;
10645;SDS011;5371;49.782;9.932;2022-08-06T02:33:15;3.30;;;2.13;;
10645;SDS011;5371;49.782;9.932;2022-08-06T02:35:45;3.65;;;2.08;;
10645;SDS011;5371;49.782;9.932;2022-08-06T02:38:36;3.10;;;2.30;;
10645;SDS011;5371;49.782;9.932;2022-08-06T02:41:16;3.50;;;1.98;;
10645;SDS011;5371;49.782;9.932;2022-08-06T02:43:48;5.00;;;2.10;;
10645;SDS011;5371;49.782;9.932;2022-08-06T02:46:23;2.90;;;1.90;;
10645;SDS011;5371;49.782;9.932;2022-08-06T02:48:56;3.20;;;2.20;;
10645;SDS011;5371;49.782;9.932;2022-08-06T02:51:32;3.95;;;2.20;;
10645;SDS011;5371;49.782;9.932;2022-08-06T02:54:05;3.85;;;2.20;;
10645;SDS011;5371;49.782;9.932;2022-08-06T02:56:40;4.90;;;2.30;;
10645;SDS011;5371;49.782;9.932;2022-08-06T02:59:12;4.00;;;2.30;;
10645;SDS011;5371;49.782;9.932;2022-08-06T03:01:48;3.83;;;2.13;;
10645;SDS011;5371;49.782;9.932;2022-08-06T03:04:19;5.43;;;2.15;;
10645;SDS011;5371;49.782;9.932;2022-08-06T03:06:51;2.88;;;2.33;;
10645;SDS011;5371;49.782;9.932;2022-08-06T03:09:21;4.43;;;2.45;;
10645;SDS011;5371;49.782;9.932;2022-08-06T03:11:51;4.15;;;2.40;;
10645;SDS011;5371;49.782;9.932;2022-08-06T03:14:20;4.57;;;2.20;;
10645;SDS011;5371;49.782;9.932;2022-08-06T03:16:50;3.08;;;2.13;;
10645;SDS011;5371;49.782;9.932;2022-08-06T03:19:23;3.03;;;2.20;;
10645;SDS011;5371;49.782;9.932;2022-08-06T03:21:55;3.78;;;2.13;;
10645;SDS011;5371;49.782;9.932;2022-08-06T03:24:32;3.53;;;2.30;;
10645;SDS011;5371;49.782;9.932;2022-08-06T03:27:05;4.15;;;2.53;;
10645;SDS011;5371;49.782;9.932;2022-08-06T03:29:35;3.38;;;2.30;;
10645;SDS011;5371;49.782;9.932;2022-08-06T03:32:06;3.30;;;2.20;;
10645;SDS011;5371;49.782;9.932;2022-08-06T03:34:35;3.53;;;2.15;;
10645;SDS011;5371;49.782;9.932;2022-08-06T03:37:06;3.67;;;1.95;;
10645;SDS011;5371;49.782;9.932;2022-08-06T03:39:36;2.22;;;1.90;;
10645;SDS011;5371;49.782;9.932;2022-08-06T03:42:08;2.97;;;2.03;;
10645;SDS011;5371;49.782;9.932;2022-08-06T03:44:40;3.55;;;2.10;;
10645;SDS011;5371;49.782;9.932;2022-08-06T03:47:16;3.15;;;2.00;;
10645;SDS011;5371;49.782;9.932;2022-08-06T03:49:51;2.28;;;1.73;;
10645;SDS011;5371;49.782;9.932;2022-08-06T03:52:32;4.85;;;1.85;;
10645;SDS011;5371;49.782;9.932;2022-08-06T03:55:06;4.63;;;1.73;;
10645;SDS011;5371;49.782;9.932;2022-08-06T03:57:42;3.85;;;1.77;;
10645;SDS011;5371;49.782;9.932;2022-08-06T04:00:14;2.85;;;1.80;;
10645;SDS011;5371;49.782;9.932;2022-08-06T04:02:46;3.40;;;1.70;;
10645;SDS011;5371;49.782;9.932;2022-08-06T04:05:17;2.70;;;1.60;;
10645;SDS011;5371;49.782;9.932;2022-08-06T04:07:47;4.93;;;1.67;;
10645;SDS011;5371;49.782;9.932;2022-08-06T04:10:18;3.45;;;1.60;;
10645;SDS011;5371;49.782;9.932;2022-08-06T04:12:48;3.20;;;1.80;;
10645;SDS011;5371;49.782;9.932;2022-08-06T04:15:16;2.28;;;1.60;;
10645;SDS011;5371;49.782;9.932;2022-08-06T04:17:46;2.95;;;1.50;;
10645;SDS011;5371;49.782;9.932;2022-08-06T04:20:18;6.78;;;1.73;;
10645;SDS011;5371;49.782;9.932;2022-08-06T04:22:49;4.10;;;1.88;;
10645;SDS011;5371;49.782;9.932;2022-08-06T04:25:21;3.65;;;1.80;;
10645;SDS011;5371;49.782;9.932;2022-08-06T04:27:53;2.03;;;1.60;;
10645;SDS011;5371;49.782;9.932;2022-08-06T04:30:22;2.72;;;1.83;;
10645;SDS011;5371;49.782;9.932;2022-08-06T04:32:54;3.13;;;1.90;;
10645;SDS011;5371;49.782;9.932;2022-08-06T04:35:22;3.83;;;1.60;;
10645;SDS011;5371;49.782;9.932;2022-08-06T04:37:50;2.75;;;1.50;;
10645;SDS011;5371;49.782;9.932;2022-08-06T04:40:18;1.85;;;1.55;;
10645;SDS011;5371;49.782;9.932;2022-08-06T04:42:46;3.15;;;1.50;;
10645;SDS011;5371;49.782;9.932;2022-08-06T04:45:14;3.35;;;1.70;;
10645;SDS011;5371;49.782;9.932;2022-08-06T04:47:42;2.50;;;1.70;;
10645;SDS011;5371;49.782;9.932;2022-08-06T04:50:12;5.95;;;1.73;;
10645;SDS011;5371;49.782;9.932;2022-08-06T04:52:39;3.17;;;1.50;;
10645;SDS011;5371;49.782;9.932;2022-08-06T04:55:06;3.10;;;1.73;;
10645;SDS011;5371;49.782;9.932;2022-08-06T04:57:34;2.13;;;1.52;;
10645;SDS011;5371;49.782;9.932;2022-08-06T05:00:02;2.38;;;1.65;;
10645;SDS011;5371;49.782;9.932;2022-08-06T05:02:30;3.10;;;1.50;;
10645;SDS011;5371;49.782;9.932;2022-08-06T05:05:00;2.75;;;1.52;;
10645;SDS011;5371;49.782;9.932;2022-08-06T05:07:29;2.92;;;1.40;;
10645;SDS011;5371;49.782;9.932;2022-08-06T05:09:58;3.70;;;1.40;;
10645;SDS011;5371;49.782;9.932;2022-08-06T05:12:27;2.92;;;1.30;;
10645;SDS011;5371;49.782;9.932;2022-08-06T05:15:03;1.58;;;1.45;;
10645;SDS011;5371;49.782;9.932;2022-08-06T05:17:35;3.50;;;1.60;;
10645;SDS011;5371;49.782;9.932;2022-08-06T05:20:16;2.97;;;1.58;;
10645;SDS011;5371;49.782;9.932;2022-08-06T05:22:47;2.95;;;1.20;;
10645;SDS011;5371;49.782;9.932;2022-08-06T05:25:26;1.92;;;1.30;;
10645;SDS011;5371;49.782;9.932;2022-08-06T05:27:54;5.38;;;1.35;;
10645;SDS011;5371;49.782;9.932;2022-08-06T05:30:23;3.40;;;1.27;;
10645;SDS011;5371;49.782;9.932;2022-08-06T05:32:53;4.20;;;1.30;;
10645;SDS011;5371;49.782;9.932;2022-08-06T05:35:21;1.70;;;1.30;;
10645;SDS011;5371;49.782;9.932;2022-08-06T05:37:50;2.85;;;1.10;;
10645;SDS011;5371;49.782;9.932;2022-08-06T05:40:19;1.60;;;1.25;;
10645;SDS011;5371;49.782;9.932;2022-08-06T05:42:50;2.47;;;1.30;;
10645;SDS011;5371;49.782;9.932;2022-08-06T05:45:34;1.92;;;1.27;;
10645;SDS011;5371;49.782;9.932;2022-08-06T05:48:07;2.10;;;1.20;;
10645;SDS011;5371;49.782;9.932;2022-08-06T05:50:44;3.78;;;1.35;;
10645;SDS011;5371;49.782;9.932;2022-08-06T05:53:19;2.17;;;1.10;;
10645;SDS011;5371;49.782;9.932;2022-08-06T05:55:54;2.65;;;1.02;;
10645;SDS011;5371;49.782;9.932;2022-08-06T05:58:29;1.48;;;0.90;;
10645;SDS011;5371;49.782;9.932;2022-08-06T06:01:07;2.55;;;1.20;;
10645;SDS011;5371;49.782;9.932;2022-08-06T06:03:37;2.08;;;1.17;;
10645;SDS011;5371;49.782;9.932;2022-08-06T06:06:12;1.85;;;1.13;;
10645;SDS011;5371;49.782;9.932;2022-08-06T06:08:42;1.92;;;1.00;;
10645;SDS011;5371;49.782;9.932;2022-08-06T06:11:11;3.25;;;1.13;;
10645;SDS011;5371;49.782;9.932;2022-08-06T06:13:41;1.88;;;1.13;;
10645;SDS011;5371;49.782;9.932;2022-08-06T06:16:13;3.97;;;1.35;;
10645;SDS011;5371;49.782;9.932;2022-08-06T06:19:01;2.00;;;1.20;;
10645;SDS011;5371;49.782;9.932;2022-08-06T06:21:43;3.25;;;1.10;;
10645;SDS011;5371;49.782;9.932;2022-08-06T06:24:22;4.05;;;1.30;;
10645;SDS011;5371;49.782;9.932;2022-08-06T06:26:59;2.67;;;1.10;;
10645;SDS011;5371;49.782;9.932;2022-08-06T06:29:37;1.52;;;1.00;;
10645;SDS011;5371;49.782;9.932;2022-08-06T06:32:12;3.13;;;1.02;;
10645;SDS011;5371;49.782;9.932;2022-08-06T06:34:50;2.15;;;1.30;;
10645;SDS011;5371;49.782;9.932;2022-08-06T06:37:26;3.47;;;1.77;;
10645;SDS011;5371;49.782;9.932;2022-08-06T06:40:18;2.63;;;1.20;;
10645;SDS011;5371;49.782;9.932;2022-08-06T06:43:05;2.25;;;1.10;;
10645;SDS011;5371;49.782;9.932;2022-08-06T06:45:48;2.17;;;1.10;;
10645;SDS011;5371;49.782;9.932;2022-08-06T06:48:31;2.10;;;1.17;;
10645;SDS011;5371;49.782;9.932;2022-08-06T06:51:05;2.53;;;1.17;;
10645;SDS011;5371;49.782;9.932;2022-08-06T06:53:37;4.35;;;1.30;;
10645;SDS011;5371;49.782;9.932;2022-08-06T06:56:10;2.30;;;1.30;;
10645;SDS011;5371;49.782;9.932;2022-08-06T06:58:48;4.68;;;1.30;;
10645;SDS011;5371;49.782;9.932;2022-08-06T07:01:19;1.20;;;1.10;;
10645;SDS011;5371;49.782;9.932;2022-08-06T07:03:48;3.20;;;1.17;;
10645;SDS011;5371;49.782;9.932;2022-08-06T07:06:16;2.55;;;1.20;;
10645;SDS011;5371;49.782;9.932;2022-08-06T07:08:45;2.95;;;1.17;;
10645;SDS011;5371;49.782;9.932;2022-08-06T07:11:19;5.25;;;1.40;;
10645;SDS011;5371;49.782;9.932;2022-08-06T07:13:51;3.67;;;1.27;;
10645;SDS011;5371;49.782;9.932;2022-08-06T07:16:24;2.67;;;1.23;;
10645;SDS011;5371;49.782;9.932;2022-08-06T07:18:53;2.53;;;1.08;;
10645;SDS011;5371;49.782;9.932;2022-08-06T07:21:23;1.83;;;1.20;;
10645;SDS011;5371;49.782;9.932;2022-08-06T07:23:52;1.85;;;1.20;;
10645;SDS011;5371;49.782;9.932;2022-08-06T07:26:23;3.45;;;1.20;;
10645;SDS011;5371;49.782;9.932;2022-08-06T07:28:55;4.53;;;1.20;;
10645;SDS011;5371;49.782;9.932;2022-08-06T07:31:25;2.42;;;1.10;;
10645;SDS011;5371;49.782;9.932;2022-08-06T07:33:59;1.85;;;1.00;;
10645;SDS011;5371;49.782;9.932;2022-08-06T07:36:31;2.50;;;1.17;;
10645;SDS011;5371;49.782;9.932;2022-08-06T07:39:03;1.85;;;1.00;;
10645;SDS011;5371;49.782;9.932;2022-08-06T07:41:37;2.08;;;1.02;;
10645;SDS011;5371;49.782;9.932;2022-08-06T07:44:07;2.92;;;1.20;;
10645;SDS011;5371;49.782;9.932;2022-08-06T07:46:41;1.75;;;1.08;;
10645;SDS011;5371;49.782;9.932;2022-08-06T07:49:14;2.00;;;1.10;;
10645;SDS011;5371;49.782;9.932;2022-08-06T07:51:46;3.58;;;1.10;;
10645;SDS011;5371;49.782;9.932;2022-08-06T07:54:16;2.65;;;1.00;;
10645;SDS011;5371;49.782;9.932;2022-08-06T07:56:49;2.47;;;1.10;;
10645;SDS011;5371;49.782;9.932;2022-08-06T07:59:18;2.13;;;1.05;;
10645;SDS011;5371;49.782;9.932;2022-08-06T08:01:47;1.92;;;1.10;;
10645;SDS011;5371;49.782;9.932;2022-08-06T08:04:16;3.92;;;1.10;;
10645;SDS011;5371;49.782;9.932;2022-08-06T08:07:02;2.40;;;1.10;;
10645;SDS011;5371;49.782;9.932;2022-08-06T08:09:32;1.50;;;0.85;;
10645;SDS011;5371;49.782;9.932;2022-08-06T08:12:04;3.70;;;1.00;;
10645;SDS011;5371;49.782;9.932;2022-08-06T08:14:34;4.75;;;1.10;;
10645;SDS011;5371;49.782;9.932;2022-08-06T08:17:03;3.58;;;1.10;;
10645;SDS011;5371;49.782;9.932;2022-08-06T08:19:32;1.45;;;1.00;;
10645;SDS011;5371;49.782;9.932;2022-08-06T08:22:05;2.20;;;1.00;;
10645;SDS011;5371;49.782;9.932;2022-08-06T08:24:39;2.03;;;0.98;;
10645;SDS011;5371;49.782;9.932;2022-08-06T08:27:15;1.63;;;0.90;;
10645;SDS011;5371;49.782;9.932;2022-08-06T08:29:42;2.92;;;1.02;;
10645;SDS011;5371;49.782;9.932;2022-08-06T08:32:12;2.08;;;0.90;;
10645;SDS011;5371;49.782;9.932;2022-08-06T08:34:42;2.85;;;1.20;;
10645;SDS011;5371;49.782;9.932;2022-08-06T08:37:12;2.22;;;1.13;;
10645;SDS011;5371;49.782;9.932;2022-08-06T08:39:40;2.40;;;1.00;;
10645;SDS011;5371;49.782;9.932;2022-08-06T08:42:14;2.00;;;0.90;;
10645;SDS011;5371;49.782;9.932;2022-08-06T08:44:45;2.25;;;1.00;;
10645;SDS011;5371;49.782;9.932;2022-08-06T08:47:17;1.38;;;1.02;;
10645;SDS011;5371;49.782;9.932;2022-08-06T08:49:50;4.63;;;1.05;;
10645;SDS011;5371;49.782;9.932;2022-08-06T08:52:27;1.50;;;0.90;;
10645;SDS011;5371;49.782;9.932;2022-08-06T08:55:03;1.63;;;0.85;;
10645;SDS011;5371;49.782;9.932;2022-08-06T08:58:45;3.03;;;1.00;;
10645;SDS011;5371;49.782;9.932;2022-08-06T09:01:15;2.13;;;1.10;;
10645;SDS011;5371;49.782;9.932;2022-08-06T09:03:43;3.00;;;1.08;;
10645;SDS011;5371;49.782;9.932;2022-08-06T09:06:14;1.70;;;1.08;;
10645;SDS011;5371;49.782;9.932;2022-08-06T09:08:44;2.38;;;1.00;;
10645;SDS011;5371;49.782;9.932;2022-08-06T09:11:14;2.40;;;1.00;;
10645;SDS011;5371;49.782;9.932;2022-08-06T09:13:43;1.92;;;0.85;;
10645;SDS011;5371;49.782;9.932;2022-08-06T09:16:14;1.67;;;1.00;;
10645;SDS011;5371;49.782;9.932;2022-08-06T09:18:46;2.08;;;1.17;;
10645;SDS011;5371;49.782;9.932;2022-08-06T09:21:17;1.98;;;0.90;;
10645;SDS011;5371;49.782;9.932;2022-08-06T09:23:45;2.65;;;1.00;;
10645;SDS011;5371;49.782;9.932;2022-08-06T09:26:13;1.98;;;0.90;;
10645;SDS011;5371;49.782;9.932;2022-08-06T09:28:41;2.15;;;0.90;;
10645;SDS011;5371;49.782;9.932;2022-08-06T09:31:12;0.95;;;0.80;;
10645;SDS011;5371;49.782;9.932;2022-08-06T09:33:43;1.48;;;0.95;;
10645;SDS011;5371;49.782;9.932;2022-08-06T09:36:21;2.70;;;0.90;;
10645;SDS011;5371;49.782;9.932;2022-08-06T09:38:53;2.42;;;0.98;;
10645;SDS011;5371;49.782;9.932;2022-08-06T09:41:27;2.45;;;0.80;;
10645;SDS011;5371;49.782;9.932;2022-08-06T09:44:01;1.27;;;0.88;;
10645;SDS011;5371;49.782;9.932;2022-08-06T09:46:40;1.90;;;1.05;;
10645;SDS011;5371;49.782;9.932;2022-08-06T09:49:10;3.10;;;0.80;;
10645;SDS011;5371;49.782;9.932;2022-08-06T09:51:43;2.08;;;0.90;;
10645;SDS011;5371;49.782;9.932;2022-08-06T09:54:14;1.42;;;0.90;;
10645;SDS011;5371;49.782;9.932;2022-08-06T09:56:43;1.90;;;0.90;;
10645;SDS011;5371;49.782;9.932;2022-08-06T09:59:12;2.03;;;0.82;;
10645;SDS011;5371;49.782;9.932;2022-08-06T10:01:42;3.58;;;0.93;;
10645;SDS011;5371;49.782;9.932;2022-08-06T10:04:23;1.38;;;0.80;;
10645;SDS011;5371;49.782;9.932;2022-08-06T10:06:55;2.38;;;0.80;;
10645;SDS011;5371;49.782;9.932;2022-08-06T10:09:24;1.92;;;0.90;;
10645;SDS011;5371;49.782;9.932;2022-08-06T10:11:52;2.65;;;0.90;;
10645;SDS011;5371;49.782;9.932;2022-08-06T10:14:20;0.98;;;0.80;;
10645;SDS011;5371;49.782;9.932;2022-08-06T10:17:06;1.73;;;0.90;;
10645;SDS011;5371;49.782;9.932;2022-08-06T10:19:38;1.27;;;0.90;;
10645;SDS011;5371;49.782;9.932;2022-08-06T10:22:09;2.10;;;0.80;;
10645;SDS011;5371;49.782;9.932;2022-08-06T10:24:39;1.52;;;0.85;;
10645;SDS011;5371;49.782;9.932;2022-08-06T10:27:09;1.88;;;1.00;;
10645;SDS011;5371;49.782;9.932;2022-08-06T10:29:39;1.17;;;0.75;;
10645;SDS011;5371;49.782;9.932;2022-08-06T10:32:13;2.38;;;0.90;;
10645;SDS011;5371;49.782;9.932;2022-08-06T10:34:49;1.38;;;0.80;;
10645;SDS011;5371;49.782;9.932;2022-08-06T10:37:20;1.60;;;0.73;;
10645;SDS011;5371;49.782;9.932;2022-08-06T10:39:50;2.40;;;0.85;;
10645;SDS011;5371;49.782;9.932;2022-08-06T10:42:23;1.55;;;0.90;;
10645;SDS011;5371;49.782;9.932;2022-08-06T10:44:53;2.58;;;1.00;;
10645;SDS011;5371;49.782;9.932;2022-08-06T10:47:31;1.70;;;0.88;;
10645;SDS011;5371;49.782;9.932;2022-08-06T10:50:00;2.28;;;0.80;;
10645;SDS011;5371;49.782;9.932;2022-08-06T10:52:33;1.10;;;0.82;;
10645;SDS011;5371;49.782;9.932;2022-08-06T10:55:03;1.48;;;0.88;;
10645;SDS011;5371;49.782;9.932;2022-08-06T10:57:33;1.98;;;0.90;;
10645;SDS011;5371;49.782;9.932;2022-08-06T11:00:02;1.45;;;0.85;;
10645;SDS011;5371;49.782;9.932;2022-08-06T11:02:36;2.42;;;0.82;;
10645;SDS011;5371;49.782;9.932;2022-08-06T11:05:15;1.95;;;1.00;;
10645;SDS011;5371;49.782;9.932;2022-08-06T11:07:56;2.30;;;0.88;;
10645;SDS011;5371;49.782;9.932;2022-08-06T11:13:28;2.17;;;1.00;;
10645;SDS011;5371;49.782;9.932;2022-08-06T11:15:59;2.25;;;0.90;;
10645;SDS011;5371;49.782;9.932;2022-08-06T11:18:28;4.32;;;0.90;;
10645;SDS011;5371;49.782;9.932;2022-08-06T11:20:55;1.70;;;0.93;;
10645;SDS011;5371;49.782;9.932;2022-08-06T11:23:27;0.70;;;0.70;;
10645;SDS011;5371;49.782;9.932;2022-08-06T11:25:59;3.58;;;0.80;;
10645;SDS011;5371;49.782;9.932;2022-08-06T11:34:15;2.65;;;0.88;;
10645;SDS011;5371;49.782;9.932;2022-08-06T11:36:52;1.23;;;0.90;;
10645;SDS011;5371;49.782;9.932;2022-08-06T11:39:28;2.58;;;1.00;;
10645;SDS011;5371;49.782;9.932;2022-08-06T11:41:58;4.28;;;0.90;;
10645;SDS011;5371;49.782;9.932;2022-08-06T11:44:33;1.88;;;1.00;;
10645;SDS011;5371;49.782;9.932;2022-08-06T11:47:14;1.50;;;0.85;;
10645;SDS011;5371;49.782;9.932;2022-08-06T11:49:49;5.78;;;0.90;;
10645;SDS011;5371;49.782;9.932;2022-08-06T11:55:09;0.85;;;0.80;;
10645;SDS011;5371;49.782;9.932;2022-08-06T12:00:57;2.40;;;0.90;;
10645;SDS011;5371;49.782;9.932;2022-08-06T12:03:37;3.03;;;0.90;;
10645;SDS011;5371;49.782;9.932;2022-08-06T12:06:23;3.03;;;0.90;;
10645;SDS011;5371;49.782;9.932;2022-08-06T12:15:00;5.55;;;0.95;;
10645;SDS011;5371;49.782;9.932;2022-08-06T12:17:30;2.72;;;0.98;;
10645;SDS011;5371;49.782;9.932;2022-08-06T12:20:06;1.95;;;0.98;;
10645;SDS011;5371;49.782;9.932;2022-08-06T12:22:39;1.08;;;0.82;;
10645;SDS011;5371;49.782;9.932;2022-08-06T12:25:21;1.67;;;0.80;;
10645;SDS011;5371;49.782;9.932;2022-08-06T12:28:01;2.38;;;0.80;;
10645;SDS011;5371;49.782;9.932;2022-08-06T12:30:37;1.13;;;0.80;;
10645;SDS011;5371;49.782;9.932;2022-08-06T12:33:08;2.60;;;0.80;;
10645;SDS011;5371;49.782;9.932;2022-08-06T12:35:47;2.47;;;0.85;;
10645;SDS011;5371;49.782;9.932;2022-08-06T12:38:18;1.67;;;0.95;;
10645;SDS011;5371;49.782;9.932;2022-08-06T12:40:51;2.58;;;0.90;;
10645;SDS011;5371;49.782;9.932;2022-08-06T12:43:20;2.83;;;1.00;;
10645;SDS011;5371;49.782;9.932;2022-08-06T12:45:55;2.30;;;1.05;;
10645;SDS011;5371;49.782;9.932;2022-08-06T12:48:26;2.22;;;0.80;;
10645;SDS011;5371;49.782;9.932;2022-08-06T12:51:00;1.98;;;0.80;;
10645;SDS011;5371;49.782;9.932;2022-08-06T12:53:31;2.53;;;0.75;;
10645;SDS011;5371;49.782;9.932;2022-08-06T12:56:04;4.72;;;0.98;;
10645;SDS011;5371;49.782;9.932;2022-08-06T12:58:34;2.60;;;0.90;;
10645;SDS011;5371;49.782;9.932;2022-08-06T13:01:06;1.05;;;0.70;;
10645;SDS011;5371;49.782;9.932;2022-08-06T13:03:37;0.88;;;0.80;;
10645;SDS011;5371;49.782;9.932;2022-08-06T13:06:14;1.60;;;0.88;;
10645;SDS011;5371;49.782;9.932;2022-08-06T13:08:46;5.05;;;0.88;;
10645;SDS011;5371;49.782;9.932;2022-08-06T13:11:15;0.70;;;0.70;;
10645;SDS011;5371;49.782;9.932;2022-08-06T13:13:54;1.15;;;0.80;;
10645;SDS011;5371;49.782;9.932;2022-08-06T13:16:24;2.15;;;0.90;;
10645;SDS011;5371;49.782;9.932;2022-08-06T13:19:10;1.67;;;0.80;;
10645;SDS011;5371;49.782;9.932;2022-08-06T13:21:42;2.70;;;0.70;;
10645;SDS011;5371;49.782;9.932;2022-08-06T13:24:24;1.77;;;0.90;;
10645;SDS011;5371;49.782;9.932;2022-08-06T13:26:53;2.55;;;1.00;;
10645;SDS011;5371;49.782;9.932;2022-08-06T13:29:23;1.77;;;0.80;;
10645;SDS011;5371;49.782;9.932;2022-08-06T13:32:00;1.52;;;0.75;;
10645;SDS011;5371;49.782;9.932;2022-08-06T13:37:45;1.30;;;0.70;;
10645;SDS011;5371;49.782;9.932;2022-08-06T13:40:16;1.35;;;0.90;;
10645;SDS011;5371;49.782;9.932;2022-08-06T13:42:54;2.97;;;0.82;;
10645;SDS011;5371;49.782;9.932;2022-08-06T13:45:23;1.73;;;0.75;;
10645;SDS011;5371;49.782;9.932;2022-08-06T13:48:00;2.80;;;0.85;;
10645;SDS011;5371;49.782;9.932;2022-08-06T13:50:29;1.55;;;0.68;;
10645;SDS011;5371;49.782;9.932;2022-08-06T13:53:04;2.30;;;0.80;;
10645;SDS011;5371;49.782;9.932;2022-08-06T13:55:38;0.73;;;0.70;;
10645;SDS011;5371;49.782;9.932;2022-08-06T13:58:11;1.17;;;0.63;;
10645;SDS011;5371;49.782;9.932;2022-08-06T14:00:39;2.90;;;0.80;;
10645;SDS011;5371;49.782;9.932;2022-08-06T14:03:14;1.08;;;0.80;;
10645;SDS011;5371;49.782;9.932;2022-08-06T14:05:43;1.25;;;0.80;;
10645;SDS011;5371;49.782;9.932;2022-08-06T14:08:11;1.98;;;0.90;;
10645;SDS011;5371;49.782;9.932;2022-08-06T14:10:41;1.08;;;0.82;;
10645;SDS011;5371;49.782;9.932;2022-08-06T14:13:15;1.33;;;0.70;;
10645;SDS011;5371;49.782;9.932;2022-08-06T14:15:53;2.85;;;0.73;;
10645;SDS011;5371;49.782;9.932;2022-08-06T14:18:24;1.55;;;0.90;;
10645;SDS011;5371;49.782;9.932;2022-08-06T14:21:02;0.80;;;0.80;;
10645;SDS011;5371;49.782;9.932;2022-08-06T14:23:35;3.22;;;0.80;;
10645;SDS011;5371;49.782;9.932;2022-08-06T14:26:13;1.88;;;0.80;;
10645;SDS011;5371;49.782;9.932;2022-08-06T14:28:40;1.20;;;0.80;;
10645;SDS011;5371;49.782;9.932;2022-08-06T14:31:11;1.08;;;0.80;;
10645;SDS011;5371;49.782;9.932;2022-08-06T14:33:38;0.80;;;0.80;;
10645;SDS011;5371;49.782;9.932;2022-08-06T14:36:07;1.90;;;0.90;;
10645;SDS011;5371;49.782;9.932;2022-08-06T14:38:34;5.63;;;1.00;;
10645;SDS011;5371;49.782;9.932;2022-08-06T14:41:02;2.30;;;1.27;;
10645;SDS011;5371;49.782;9.932;2022-08-06T14:43:48;5.22;;;1.00;;
10645;SDS011;5371;49.782;9.932;2022-08-06T14:46:32;1.73;;;0.90;;
10645;SDS011;5371;49.782;9.932;2022-08-06T14:49:01;2.47;;;0.88;;
10645;SDS011;5371;49.782;9.932;2022-08-06T14:51:29;2.65;;;1.00;;
10645;SDS011;5371;49.782;9.932;2022-08-06T14:53:56;1.67;;;1.02;;
10645;SDS011;5371;49.782;9.932;2022-08-06T14:56:23;3.28;;;1.00;;
10645;SDS011;5371;49.782;9.932;2022-08-06T14:58:54;2.70;;;1.30;;
10645;SDS011;5371;49.782;9.932;2022-08-06T15:01:22;1.00;;;0.80;;
10645;SDS011;5371;49.782;9.932;2022-08-06T15:03:50;1.50;;;0.80;;
10645;SDS011;5371;49.782;9.932;2022-08-06T15:06:20;2.05;;;1.00;;
10645;SDS011;5371;49.782;9.932;2022-08-06T15:08:47;3.10;;;1.00;;
10645;SDS011;5371;49.782;9.932;2022-08-06T15:11:15;3.30;;;0.85;;
10645;SDS011;5371;49.782;9.932;2022-08-06T15:13:42;1.60;;;0.85;;
10645;SDS011;5371;49.782;9.932;2022-08-06T15:16:13;1.67;;;1.35;;
10645;SDS011;5371;49.782;9.932;2022-08-06T15:18:44;1.77;;;0.93;;
10645;SDS011;5371;49.782;9.932;2022-08-06T15:21:11;2.65;;;1.80;;
10645;SDS011;5371;49.782;9.932;2022-08-06T15:23:39;1.42;;;0.82;;
10645;SDS011;5371;49.782;9.932;2022-08-06T15:26:10;4.18;;;1.02;;
10645;SDS011;5371;49.782;9.932;2022-08-06T15:28:38;1.52;;;0.90;;
10645;SDS011;5371;49.782;9.932;2022-08-06T15:31:07;2.25;;;1.00;;
10645;SDS011;5371;49.782;9.932;2022-08-06T15:33:43;1.13;;;0.80;;
10645;SDS011;5371;49.782;9.932;2022-08-06T15:36:13;1.73;;;0.85;;
10645;SDS011;5371;49.782;9.932;2022-08-06T15:38:42;4.25;;;1.90;;
10645;SDS011;5371;49.782;9.932;2022-08-06T15:41:13;1.83;;;0.90;;
10645;SDS011;5371;49.782;9.932;2022-08-06T15:43:43;0.80;;;0.68;;
10645;SDS011;5371;49.782;9.932;2022-08-06T15:46:12;1.50;;;0.90;;
10645;SDS011;5371;49.782;9.932;2022-08-06T15:48:45;1.15;;;0.90;;
10645;SDS011;5371;49.782;9.932;2022-08-06T15:51:17;1.15;;;0.90;;
10645;SDS011;5371;49.782;9.932;2022-08-06T15:53:55;1.25;;;0.90;;
10645;SDS011;5371;49.782;9.932;2022-08-06T15:56:39;1.83;;;0.80;;